Time;durP1;ratioP1;P1;durP2;ratioP2;P2;SDS_P1;SDS_P2;PMS_P1;PMS_P2;Temp;Humidity;BMP_temperature;BMP_pressure;BME280_temperature;BME280_humidity;BME280_pressure;Samples;Min_cycle;Max_cycle;Signal;HPM_P1;HPM_P2
2022/07/28 00:01:32;;;;;;;3.35;1.08;;;12.00;99.90;;;;;;5072452;28;20036;-66
2022/07/28 00:03:59;;;;;;;2.85;1.20;;;11.90;99.90;;;;;;5074062;28;20037;-66
2022/07/28 00:06:25;;;;;;;2.15;0.95;;;11.90;99.90;;;;;;5056251;28;20032;-66
2022/07/28 00:08:51;;;;;;;1.55;0.90;;;11.70;99.90;;;;;;5072692;28;20123;-66
2022/07/28 00:11:17;;;;;;;3.22;1.10;;;11.60;99.90;;;;;;5054808;28;20032;-66
2022/07/28 00:13:42;;;;;;;1.52;0.85;;;11.60;99.90;;;;;;5073670;28;20053;-66
2022/07/28 00:16:08;;;;;;;1.42;0.80;;;11.60;99.90;;;;;;5062916;28;20078;-66
2022/07/28 00:18:34;;;;;;;1.92;0.90;;;11.70;99.90;;;;;;5035556;28;20405;-66
2022/07/28 00:21:01;;;;;;;1.17;0.80;;;11.80;99.90;;;;;;5059727;28;20471;-66
2022/07/28 00:23:27;;;;;;;0.82;0.50;;;11.80;99.90;;;;;;5073835;28;20382;-66
2022/07/28 00:25:52;;;;;;;2.13;0.60;;;11.80;99.90;;;;;;5055162;28;20047;-66
2022/07/28 00:28:18;;;;;;;2.08;1.05;;;11.70;99.90;;;;;;5057283;28;20040;-66
2022/07/28 00:30:43;;;;;;;1.55;0.90;;;11.70;99.90;;;;;;5050079;28;20032;-66
2022/07/28 00:33:09;;;;;;;3.05;1.25;;;11.60;99.90;;;;;;5032837;28;20049;-66
2022/07/28 00:35:35;;;;;;;2.35;1.00;;;11.50;99.90;;;;;;5016380;28;20039;-67
2022/07/28 00:38:00;;;;;;;0.77;0.60;;;11.50;99.90;;;;;;5033184;28;20037;-66
2022/07/28 00:41:09;;;;;;;1.58;0.60;;;11.50;99.90;;;;;;5048964;28;20047;-67
2022/07/28 00:43:12;;;;;;;0.63;0.60;;;11.60;99.90;;;;;;5068100;28;20056;-67
2022/07/28 00:45:38;;;;;;;1.85;0.70;;;11.60;99.90;;;;;;5047613;28;20037;-66
2022/07/28 00:48:04;;;;;;;1.05;0.45;;;11.60;99.90;;;;;;5048887;28;21260;-66
2022/07/28 00:50:29;;;;;;;1.00;0.40;;;11.70;99.90;;;;;;5028131;28;20069;-66
2022/07/28 00:52:55;;;;;;;1.08;0.50;;;11.70;99.90;;;;;;5023895;28;20038;-66
2022/07/28 00:55:23;;;;;;;2.03;0.47;;;11.70;99.90;;;;;;5046804;28;20514;-66
2022/07/28 00:57:48;;;;;;;1.45;0.60;;;11.60;99.90;;;;;;5054925;28;20412;-66
2022/07/28 01:00:14;;;;;;;0.45;0.45;;;11.60;99.90;;;;;;5048422;28;20093;-66
2022/07/28 01:02:41;;;;;;;0.95;0.20;;;11.60;99.90;;;;;;5047999;28;20528;-66
2022/07/28 01:05:07;;;;;;;0.30;0.30;;;11.60;99.90;;;;;;5068435;28;20496;-66
2022/07/28 01:07:44;;;;;;;0.30;0.20;;;11.60;99.90;;;;;;5035723;28;20041;-66
2022/07/28 01:10:18;;;;;;;0.30;0.30;;;11.60;99.90;;;;;;5051616;28;20044;-66
2022/07/28 01:13:00;;;;;;;1.85;0.77;;;11.60;99.90;;;;;;5035270;28;20515;-66
2022/07/28 01:15:39;;;;;;;2.38;0.65;;;11.50;99.90;;;;;;5051667;28;20048;-66
2022/07/28 01:18:08;;;;;;;1.58;0.57;;;11.30;99.90;;;;;;5035930;28;20389;-66
2022/07/28 01:20:51;;;;;;;0.75;0.50;;;11.30;99.90;;;;;;5051971;28;20037;-66
2022/07/28 01:23:25;;;;;;;8.07;0.80;;;11.30;99.90;;;;;;5052665;28;20052;-66
2022/07/28 01:26:10;;;;;;;0.73;0.70;;;11.30;99.90;;;;;;5051723;28;20094;-66
2022/07/28 01:29:14;;;;;;;1.77;0.70;;;11.20;99.90;;;;;;5049191;28;20041;-66
2022/07/28 01:31:44;;;;;;;1.13;0.70;;;11.20;99.90;;;;;;5021154;28;20155;-66
2022/07/28 01:34:15;;;;;;;2.10;0.90;;;11.10;99.90;;;;;;5035233;28;20111;-66
2022/07/28 01:36:48;;;;;;;1.07;0.57;;;11.00;99.90;;;;;;5035709;28;20044;-66
2022/07/28 01:39:16;;;;;;;1.70;0.70;;;10.90;99.90;;;;;;5034950;28;20045;-66
2022/07/28 01:41:43;;;;;;;1.50;0.68;;;11.00;99.90;;;;;;5035554;28;20040;-66
2022/07/28 01:44:14;;;;;;;0.52;0.50;;;11.10;99.90;;;;;;5051490;28;20045;-66
2022/07/28 01:46:42;;;;;;;3.28;0.77;;;11.10;99.90;;;;;;5034026;28;20066;-66
2022/07/28 01:49:09;;;;;;;2.17;0.80;;;11.00;99.90;;;;;;5035807;28;20084;-66
2022/07/28 01:51:36;;;;;;;1.80;0.80;;;11.00;99.90;;;;;;5033977;28;20087;-66
2022/07/28 01:54:03;;;;;;;2.28;0.93;;;11.10;99.90;;;;;;5052008;28;20081;-66
2022/07/28 01:56:31;;;;;;;1.08;0.75;;;11.10;99.90;;;;;;5051198;28;20040;-66
2022/07/28 01:59:01;;;;;;;4.55;1.10;;;11.00;99.90;;;;;;5052265;28;20375;-66
2022/07/28 02:01:28;;;;;;;1.23;0.70;;;11.00;99.90;;;;;;5034676;28;20490;-66
2022/07/28 02:03:57;;;;;;;1.70;0.80;;;10.90;99.90;;;;;;5051848;28;20048;-66
2022/07/28 02:06:26;;;;;;;3.40;1.08;;;10.90;99.90;;;;;;5049190;28;20057;-66
2022/07/28 02:08:53;;;;;;;0.90;0.80;;;11.00;99.90;;;;;;5049410;28;20041;-66
2022/07/28 02:14:07;;;;;;;1.83;0.70;;;11.00;99.90;;;;;;5045236;28;20310;-66
2022/07/28 02:16:32;;;;;;;1.55;0.70;;;11.00;99.90;;;;;;5049285;28;20048;-66
2022/07/28 02:19:00;;;;;;;1.05;0.80;;;10.90;99.90;;;;;;5032046;28;20056;-66
2022/07/28 02:21:28;;;;;;;2.53;0.98;;;10.90;99.90;;;;;;5051963;28;20101;-66
2022/07/28 02:23:56;;;;;;;1.48;0.85;;;10.90;99.90;;;;;;5049624;28;20041;-66
2022/07/28 02:26:27;;;;;;;1.45;0.90;;;10.90;99.90;;;;;;5051686;28;20045;-66
2022/07/28 02:28:56;;;;;;;3.43;0.90;;;10.90;99.90;;;;;;5034338;28;20077;-66
2022/07/28 02:31:27;;;;;;;1.35;0.80;;;10.90;99.90;;;;;;5051695;28;20052;-66
2022/07/28 02:33:59;;;;;;;1.42;0.80;;;10.80;99.90;;;;;;5050734;28;20045;-66
2022/07/28 02:36:29;;;;;;;1.52;0.77;;;10.80;99.90;;;;;;5035140;28;20044;-66
2022/07/28 02:39:00;;;;;;;2.13;0.85;;;10.80;99.90;;;;;;5067550;28;20120;-66
2022/07/28 02:41:28;;;;;;;1.93;1.00;;;10.80;99.90;;;;;;5034915;28;20033;-66
2022/07/28 02:43:59;;;;;;;1.52;0.88;;;10.80;99.90;;;;;;5034883;28;20282;-66
2022/07/28 02:46:36;;;;;;;2.72;1.08;;;10.80;99.90;;;;;;5034011;28;20044;-66
2022/07/28 02:49:07;;;;;;;1.85;1.10;;;10.70;99.90;;;;;;5051440;28;20033;-66
2022/07/28 02:51:35;;;;;;;2.08;1.00;;;10.50;99.90;;;;;;5034290;28;20471;-66
2022/07/28 02:54:02;;;;;;;2.45;1.00;;;10.50;99.90;;;;;;5034126;28;20401;-65
2022/07/28 02:56:28;;;;;;;1.92;1.10;;;10.50;99.90;;;;;;5049227;28;20114;-66
2022/07/28 02:58:56;;;;;;;2.05;1.10;;;10.60;99.90;;;;;;5052099;28;20071;-66
2022/07/28 03:01:22;;;;;;;2.13;1.00;;;10.50;99.90;;;;;;5033337;28;20422;-66
2022/07/28 03:03:48;;;;;;;1.73;1.05;;;10.40;99.90;;;;;;5051315;28;20041;-66
2022/07/28 03:06:16;;;;;;;2.03;0.90;;;10.40;99.90;;;;;;5056599;28;20463;-66
2022/07/28 03:08:42;;;;;;;2.35;1.27;;;10.40;99.90;;;;;;5049523;28;20432;-66
2022/07/28 03:11:08;;;;;;;3.15;1.30;;;10.40;99.90;;;;;;5033912;28;20497;-66
2022/07/28 03:13:34;;;;;;;2.13;1.15;;;10.50;99.90;;;;;;5034339;28;20075;-66
2022/07/28 03:16:00;;;;;;;2.80;1.40;;;10.50;99.90;;;;;;5055855;28;20036;-66
2022/07/28 03:18:27;;;;;;;3.03;1.85;;;10.40;99.90;;;;;;5054539;28;20102;-66
2022/07/28 03:20:54;;;;;;;3.05;1.50;;;10.50;99.90;;;;;;5034964;28;20087;-66
2022/07/28 03:23:23;;;;;;;3.35;1.60;;;10.50;99.90;;;;;;5036996;28;20041;-66
2022/07/28 03:25:53;;;;;;;3.22;1.60;;;10.50;99.90;;;;;;5053918;28;20493;-66
2022/07/28 03:28:20;;;;;;;4.20;1.90;;;10.30;99.90;;;;;;5053891;28;20051;-66
2022/07/28 03:30:59;;;;;;;2.70;1.55;;;10.30;99.90;;;;;;5037193;28;20082;-66
2022/07/28 03:33:25;;;;;;;3.75;1.80;;;10.10;99.90;;;;;;5037759;28;20033;-66
2022/07/28 03:35:52;;;;;;;5.13;2.05;;;10.00;99.90;;;;;;5054894;28;20428;-66
2022/07/28 03:38:24;;;;;;;2.65;1.52;;;10.00;99.90;;;;;;5037066;28;20040;-66
2022/07/28 03:40:53;;;;;;;3.13;1.45;;;10.00;99.90;;;;;;5037827;28;20040;-66
2022/07/28 03:43:22;;;;;;;3.83;1.60;;;10.00;99.90;;;;;;5053710;28;20397;-66
2022/07/28 03:45:49;;;;;;;3.00;1.50;;;10.10;99.90;;;;;;5053306;28;20136;-66
2022/07/28 03:48:15;;;;;;;3.15;1.63;;;10.10;99.90;;;;;;5054517;28;20378;-66
2022/07/28 03:50:41;;;;;;;4.32;1.60;;;10.00;99.90;;;;;;5037357;28;20059;-66
2022/07/28 03:53:24;;;;;;;4.15;1.30;;;10.00;99.90;;;;;;5053178;28;20079;-66
2022/07/28 03:55:50;;;;;;;3.15;1.67;;;10.00;99.90;;;;;;5036216;28;20512;-66
2022/07/28 03:58:20;;;;;;;3.10;1.48;;;10.10;99.90;;;;;;5054004;28;20040;-66
2022/07/28 04:00:46;;;;;;;2.42;1.20;;;10.00;99.90;;;;;;5051596;28;20041;-66
2022/07/28 04:03:12;;;;;;;2.95;1.60;;;10.00;99.90;;;;;;5037536;28;20075;-66
2022/07/28 04:05:38;;;;;;;2.47;1.27;;;10.00;99.90;;;;;;5053301;28;20041;-66
2022/07/28 04:08:04;;;;;;;4.00;1.70;;;10.00;99.90;;;;;;5037851;28;20041;-66
2022/07/28 04:10:30;;;;;;;3.53;1.60;;;10.00;99.90;;;;;;5053128;28;20502;-66
2022/07/28 04:12:56;;;;;;;0.80;0.60;;;9.90;99.90;;;;;;5053846;28;20056;-66
2022/07/28 04:15:24;;;;;;;2.08;0.70;;;10.00;99.90;;;;;;5049545;28;20106;-66
2022/07/28 04:17:51;;;;;;;0.90;0.60;;;10.00;99.90;;;;;;5053860;28;20044;-66
2022/07/28 04:20:18;;;;;;;0.98;0.70;;;10.00;99.90;;;;;;5052983;28;20037;-66
2022/07/28 04:22:44;;;;;;;1.20;0.82;;;10.00;99.90;;;;;;5050749;28;20123;-68
2022/07/28 04:25:13;;;;;;;1.15;0.60;;;10.00;99.90;;;;;;5068113;28;20052;-68
2022/07/28 04:27:40;;;;;;;2.63;0.68;;;10.10;99.90;;;;;;5041899;28;20036;-68
2022/07/28 04:30:17;;;;;;;1.02;0.70;;;10.10;99.90;;;;;;5071827;28;20115;-68
2022/07/28 04:32:45;;;;;;;1.05;0.60;;;10.10;99.90;;;;;;5048675;28;20037;-68
2022/07/28 04:35:11;;;;;;;1.83;0.85;;;10.10;99.90;;;;;;5051436;28;20086;-68
2022/07/28 04:37:38;;;;;;;1.27;0.95;;;10.20;99.90;;;;;;5058573;28;20032;-68
2022/07/28 04:40:08;;;;;;;2.50;1.33;;;10.20;99.90;;;;;;5050550;28;20048;-69
2022/07/28 04:42:35;;;;;;;1.20;1.00;;;10.20;99.90;;;;;;5036883;28;20531;-68
2022/07/28 04:45:01;;;;;;;2.13;0.90;;;10.30;99.90;;;;;;5049801;28;20045;-69
2022/07/28 04:47:28;;;;;;;2.45;1.30;;;10.30;99.90;;;;;;5052249;28;20497;-68
2022/07/28 04:49:54;;;;;;;2.25;1.20;;;10.30;99.90;;;;;;5036719;28;20087;-68
2022/07/28 04:52:21;;;;;;;2.03;1.20;;;10.30;99.90;;;;;;5052260;28;20115;-68
2022/07/28 04:54:47;;;;;;;3.17;1.48;;;10.30;99.90;;;;;;5036476;28;20048;-68
2022/07/28 04:57:13;;;;;;;3.80;1.80;;;10.30;99.90;;;;;;5036162;28;20037;-68
2022/07/28 04:59:39;;;;;;;1.98;1.20;;;10.30;99.90;;;;;;5053200;28;20039;-68
2022/07/28 05:02:05;;;;;;;3.03;1.20;;;10.20;99.90;;;;;;5049307;28;20033;-68
2022/07/28 05:04:30;;;;;;;3.53;1.50;;;10.30;99.90;;;;;;5035880;28;20047;-69
2022/07/28 05:06:56;;;;;;;4.75;1.60;;;10.30;99.90;;;;;;5059568;28;20037;-69
2022/07/28 05:09:22;;;;;;;2.97;1.63;;;10.20;99.90;;;;;;5053144;28;20124;-68
2022/07/28 05:11:47;;;;;;;4.38;1.98;;;10.30;99.90;;;;;;5035206;28;20499;-68
2022/07/28 05:14:14;;;;;;;4.65;2.00;;;10.30;99.90;;;;;;5039763;28;20041;-68
2022/07/28 05:16:39;;;;;;;4.15;2.00;;;10.30;99.90;;;;;;5054560;28;20045;-68
2022/07/28 05:19:05;;;;;;;4.93;1.85;;;10.40;99.90;;;;;;5052609;28;20405;-68
2022/07/28 05:21:30;;;;;;;6.22;1.90;;;10.50;99.90;;;;;;5051768;28;20095;-69
2022/07/28 05:23:56;;;;;;;5.18;2.15;;;10.60;99.90;;;;;;5052873;28;20037;-68
2022/07/28 05:26:21;;;;;;;5.70;2.30;;;10.70;99.90;;;;;;5048044;28;20485;-68
2022/07/28 05:28:47;;;;;;;3.75;2.00;;;10.70;99.90;;;;;;5052436;28;20097;-68
2022/07/28 05:31:13;;;;;;;3.53;1.83;;;10.70;99.90;;;;;;5052061;28;20119;-68
2022/07/28 05:33:39;;;;;;;3.40;1.83;;;10.80;99.90;;;;;;5052334;28;20037;-68
2022/07/28 05:36:05;;;;;;;5.30;2.00;;;10.90;99.90;;;;;;5051526;28;20042;-68
2022/07/28 05:38:31;;;;;;;3.92;2.10;;;10.90;99.90;;;;;;5052575;28;20389;-69
2022/07/28 05:40:57;;;;;;;6.15;2.78;;;11.00;99.90;;;;;;5051399;28;20037;-68
2022/07/28 05:43:23;;;;;;;3.67;2.03;;;11.10;99.90;;;;;;5035220;28;20047;-69
2022/07/28 05:45:48;;;;;;;3.55;1.80;;;11.10;99.90;;;;;;5049678;28;20041;-68
2022/07/28 05:48:20;;;;;;;3.20;1.90;;;11.20;99.90;;;;;;5036089;28;20048;-69
2022/07/28 05:50:47;;;;;;;3.47;1.95;;;11.20;99.90;;;;;;5051189;28;20049;-69
2022/07/28 05:53:13;;;;;;;5.50;2.35;;;11.30;99.90;;;;;;5051837;28;20126;-68
2022/07/28 05:55:39;;;;;;;6.45;2.80;;;11.40;99.90;;;;;;5034965;28;20349;-68
2022/07/28 05:58:05;;;;;;;5.18;2.25;;;11.40;99.90;;;;;;5052042;28;20120;-69
2022/07/28 06:00:33;;;;;;;4.43;2.20;;;11.40;99.90;;;;;;5033147;28;20440;-69
2022/07/28 06:03:02;;;;;;;3.75;2.15;;;11.50;99.90;;;;;;5034804;28;20033;-69
2022/07/28 06:05:29;;;;;;;5.13;2.35;;;11.50;99.90;;;;;;5055211;28;20510;-69
2022/07/28 06:07:56;;;;;;;4.30;2.05;;;11.60;99.90;;;;;;5046750;28;20086;-69
2022/07/28 06:10:24;;;;;;;4.50;1.85;;;11.60;99.90;;;;;;5050053;28;20381;-69
2022/07/28 06:12:53;;;;;;;4.82;2.17;;;11.70;99.90;;;;;;5023027;28;20417;-69
2022/07/28 06:15:21;;;;;;;4.47;2.00;;;11.80;99.90;;;;;;5046746;28;20091;-69
2022/07/28 06:17:47;;;;;;;6.43;2.53;;;11.80;99.90;;;;;;5057380;28;20055;-69
2022/07/28 06:20:13;;;;;;;4.38;2.15;;;11.90;99.90;;;;;;5050939;28;20148;-69
2022/07/28 06:22:44;;;;;;;4.68;2.17;;;11.90;99.90;;;;;;5035597;28;20497;-69
2022/07/28 06:25:18;;;;;;;4.63;2.30;;;12.00;99.90;;;;;;5070744;28;20374;-69
2022/07/28 06:27:45;;;;;;;4.97;2.10;;;12.10;99.90;;;;;;5071583;28;20083;-69
2022/07/28 06:30:11;;;;;;;4.47;2.17;;;12.20;99.90;;;;;;5019548;28;20053;-69
2022/07/28 06:32:37;;;;;;;3.65;1.90;;;12.30;99.90;;;;;;5042581;28;20575;-69
2022/07/28 06:35:03;;;;;;;4.25;1.98;;;12.40;99.90;;;;;;5051343;28;20419;-69
2022/07/28 06:37:29;;;;;;;3.95;2.33;;;12.40;99.90;;;;;;5051554;28;20044;-69
2022/07/28 06:39:54;;;;;;;4.88;2.42;;;12.60;99.90;;;;;;5038800;28;20511;-69
2022/07/28 06:42:20;;;;;;;5.20;2.22;;;12.70;99.90;;;;;;5051250;28;20037;-69
2022/07/28 06:44:46;;;;;;;5.13;2.45;;;12.80;99.90;;;;;;5040413;28;20029;-69
2022/07/28 06:47:11;;;;;;;5.35;2.72;;;12.80;99.90;;;;;;5053683;28;20045;-69
2022/07/28 06:49:37;;;;;;;5.93;2.58;;;12.90;99.90;;;;;;5049110;28;20041;-69
2022/07/28 06:52:02;;;;;;;4.57;2.40;;;12.90;99.90;;;;;;5051245;28;20045;-69
2022/07/28 06:54:28;;;;;;;6.40;2.70;;;13.00;99.90;;;;;;5051034;28;20044;-69
2022/07/28 06:56:54;;;;;;;5.78;2.70;;;13.00;99.90;;;;;;5068217;28;20507;-69
2022/07/28 06:59:19;;;;;;;5.22;2.67;;;13.10;99.90;;;;;;5057122;28;20037;-69
2022/07/28 07:01:45;;;;;;;6.15;2.92;;;13.20;99.90;;;;;;5075180;28;20040;-69
2022/07/28 07:04:10;;;;;;;7.13;2.72;;;13.20;99.90;;;;;;5044986;28;20066;-69
2022/07/28 07:06:36;;;;;;;6.43;2.25;;;13.30;99.90;;;;;;5051734;28;20098;-69
2022/07/28 07:09:02;;;;;;;7.82;2.65;;;13.30;99.90;;;;;;5053106;28;20039;-69
2022/07/28 07:11:28;;;;;;;6.22;2.28;;;13.40;99.90;;;;;;5046399;28;20033;-69
2022/07/28 07:13:53;;;;;;;5.05;2.30;;;13.50;99.90;;;;;;5054377;28;20119;-69
2022/07/28 07:16:19;;;;;;;6.20;2.50;;;13.50;99.90;;;;;;5055558;28;20084;-69
2022/07/28 07:18:47;;;;;;;8.35;2.72;;;13.50;99.90;;;;;;5065359;28;20067;-69
2022/07/28 07:21:12;;;;;;;10.52;2.63;;;13.60;99.90;;;;;;5050526;28;20124;-69
2022/07/28 07:23:38;;;;;;;6.82;1.80;;;13.60;99.90;;;;;;5054148;28;20124;-69
2022/07/28 07:26:04;;;;;;;5.15;2.08;;;13.70;99.90;;;;;;5073341;28;20039;-69
2022/07/28 07:28:30;;;;;;;3.53;1.63;;;13.70;99.90;;;;;;5064917;28;20040;-69
2022/07/28 07:30:55;;;;;;;3.72;1.52;;;13.70;99.90;;;;;;5038668;28;20036;-69
2022/07/28 07:33:21;;;;;;;6.05;1.52;;;13.80;99.90;;;;;;5057467;28;20036;-69
2022/07/28 07:35:47;;;;;;;6.53;2.00;;;13.80;99.90;;;;;;5072206;28;20550;-69
2022/07/28 07:38:13;;;;;;;6.40;1.45;;;13.90;99.90;;;;;;5041848;28;20037;-69
2022/07/28 07:40:38;;;;;;;5.15;1.65;;;13.90;99.90;;;;;;5035474;28;20079;-69
2022/07/28 07:43:04;;;;;;;4.25;1.63;;;13.90;99.90;;;;;;5017547;28;20064;-72
2022/07/28 07:45:30;;;;;;;2.58;1.05;;;14.00;99.90;;;;;;5041591;28;20051;-76
2022/07/28 07:47:56;;;;;;;7.97;1.67;;;14.10;99.90;;;;;;5049032;28;20033;-76
2022/07/28 07:50:22;;;;;;;4.65;1.15;;;14.20;99.90;;;;;;5070155;28;20174;-76
2022/07/28 07:52:48;;;;;;;4.55;1.00;;;14.30;99.90;;;;;;5072060;28;20043;-76
2022/07/28 07:55:15;;;;;;;8.10;1.40;;;14.50;99.90;;;;;;5038331;28;20090;-76
2022/07/28 07:57:41;;;;;;;4.43;1.50;;;14.50;99.90;;;;;;5038152;28;20067;-76
2022/07/28 08:00:08;;;;;;;4.72;1.30;;;14.60;99.90;;;;;;5052166;28;20040;-76
2022/07/28 08:02:36;;;;;;;3.08;1.38;;;14.70;99.90;;;;;;5069952;28;20043;-75
2022/07/28 08:05:02;;;;;;;3.97;1.25;;;14.80;99.90;;;;;;5048526;28;20048;-76
2022/07/28 08:07:28;;;;;;;6.63;1.85;;;14.80;99.90;;;;;;5045402;28;20036;-76
2022/07/28 08:09:53;;;;;;;4.97;1.60;;;14.80;99.90;;;;;;5057059;28;20083;-76
2022/07/28 08:12:19;;;;;;;6.55;1.95;;;14.80;99.90;;;;;;5064008;28;20053;-76
2022/07/28 08:14:44;;;;;;;5.18;1.90;;;14.80;99.90;;;;;;5053239;28;20042;-76
2022/07/28 08:17:10;;;;;;;3.67;1.75;;;14.80;99.90;;;;;;5071059;28;20036;-76
2022/07/28 08:19:35;;;;;;;5.80;1.90;;;14.80;99.90;;;;;;5053158;28;20068;-76
2022/07/28 08:22:01;;;;;;;7.65;1.80;;;14.80;99.90;;;;;;5044508;28;20103;-76
2022/07/28 08:24:27;;;;;;;7.80;2.05;;;14.80;99.90;;;;;;5073095;28;20117;-76
2022/07/28 08:26:52;;;;;;;6.47;1.60;;;14.80;99.90;;;;;;5061327;28;20093;-76
2022/07/28 08:29:18;;;;;;;8.05;2.00;;;14.80;99.90;;;;;;5036439;28;20532;-76
2022/07/28 08:31:43;;;;;;;5.97;2.17;;;14.90;99.90;;;;;;5056557;28;20039;-76
2022/07/28 08:34:09;;;;;;;5.53;1.75;;;14.90;99.90;;;;;;5055009;28;20354;-76
2022/07/28 08:36:34;;;;;;;6.25;2.00;;;14.90;99.90;;;;;;5070949;28;20048;-76
2022/07/28 08:39:00;;;;;;;5.43;1.40;;;15.00;99.90;;;;;;5056315;28;20051;-76
2022/07/28 08:41:35;;;;;;;6.70;1.67;;;15.00;99.90;;;;;;5053612;28;20569;-76
2022/07/28 08:44:02;;;;;;;6.40;1.98;;;15.10;99.90;;;;;;5040237;28;20067;-76
2022/07/28 08:46:34;;;;;;;5.10;1.60;;;15.20;99.90;;;;;;5033543;28;20044;-76
2022/07/28 08:49:01;;;;;;;4.75;1.65;;;15.30;99.90;;;;;;5052188;28;20521;-76
2022/07/28 08:51:27;;;;;;;6.35;2.58;;;15.30;99.90;;;;;;5062347;28;20047;-75
2022/07/28 08:53:54;;;;;;;4.75;1.33;;;15.60;99.90;;;;;;5051898;28;20374;-76
2022/07/28 08:56:20;;;;;;;10.13;1.60;;;15.70;99.90;;;;;;5039885;28;20460;-75
2022/07/28 08:58:46;;;;;;;3.40;1.55;;;15.80;99.90;;;;;;5038884;28;20068;-75
2022/07/28 09:01:12;;;;;;;5.70;1.40;;;16.00;99.90;;;;;;5072096;28;20044;-76
2022/07/28 09:03:38;;;;;;;4.45;1.17;;;16.20;99.90;;;;;;5054282;28;20051;-75
2022/07/28 09:06:04;;;;;;;4.50;1.38;;;16.40;99.90;;;;;;5039238;28;20045;-75
2022/07/28 09:08:29;;;;;;;7.50;1.42;;;16.60;99.90;;;;;;5055595;28;20118;-75
2022/07/28 09:10:55;;;;;;;4.10;1.48;;;16.70;99.90;;;;;;5070074;28;20051;-76
2022/07/28 09:13:21;;;;;;;7.25;2.25;;;16.90;99.90;;;;;;5067053;28;20059;-76
2022/07/28 09:15:47;;;;;;;5.95;2.35;;;17.00;99.90;;;;;;5055731;28;20085;-76
2022/07/28 09:18:14;;;;;;;6.45;1.52;;;17.20;99.90;;;;;;5051947;28;20039;-75
2022/07/28 09:20:41;;;;;;;3.55;1.13;;;17.20;99.90;;;;;;5049140;28;20049;-76
2022/07/28 09:23:08;;;;;;;4.35;1.23;;;17.10;99.90;;;;;;5043866;28;20389;-76
2022/07/28 09:25:34;;;;;;;4.57;1.15;;;17.20;99.90;;;;;;5071884;28;20052;-76
2022/07/28 09:28:13;;;;;;;2.28;1.10;;;17.30;99.90;;;;;;5054271;28;20040;-76
2022/07/28 09:30:48;;;;;;;4.75;1.30;;;17.40;99.90;;;;;;5068735;28;20043;-76
2022/07/28 09:33:21;;;;;;;3.67;0.90;;;17.50;99.90;;;;;;5065729;28;20068;-76
2022/07/28 09:35:52;;;;;;;4.80;1.05;;;17.60;99.90;;;;;;5051184;28;20048;-75
2022/07/28 09:38:20;;;;;;;4.40;1.20;;;17.60;99.90;;;;;;5072504;28;20505;-76
2022/07/28 09:40:59;;;;;;;5.53;1.48;;;17.60;99.90;;;;;;5068969;28;20032;-76
2022/07/28 09:43:37;;;;;;;4.07;1.20;;;17.60;99.90;;;;;;5046616;28;20044;-76
2022/07/28 09:46:08;;;;;;;3.63;1.20;;;17.70;99.90;;;;;;5051684;28;20134;-76
2022/07/28 09:48:49;;;;;;;5.22;1.08;;;17.60;99.90;;;;;;5068439;28;20602;-76
2022/07/28 09:51:22;;;;;;;5.10;1.25;;;17.60;99.90;;;;;;5042207;28;20033;-76
2022/07/28 09:53:49;;;;;;;3.58;1.15;;;17.70;99.90;;;;;;5048276;28;20085;-76
2022/07/28 09:56:14;;;;;;;3.08;1.27;;;17.70;99.90;;;;;;5071473;28;20043;-76
2022/07/28 09:58:50;;;;;;;3.28;1.10;;;17.60;99.90;;;;;;5053027;28;20029;-76
2022/07/28 10:01:19;;;;;;;3.92;1.20;;;17.60;99.90;;;;;;5052435;28;20090;-76
2022/07/28 10:03:52;;;;;;;3.22;1.30;;;17.70;99.90;;;;;;5049724;28;20507;-76
2022/07/28 10:06:25;;;;;;;3.90;1.10;;;17.60;99.90;;;;;;5035033;28;20055;-75
2022/07/28 10:08:52;;;;;;;5.22;1.27;;;17.60;99.90;;;;;;5051160;28;20044;-76
2022/07/28 10:11:23;;;;;;;3.63;1.08;;;17.60;99.90;;;;;;5030291;28;20044;-76
2022/07/28 10:13:55;;;;;;;5.55;1.30;;;17.60;99.90;;;;;;5051448;28;20060;-76
2022/07/28 10:16:26;;;;;;;4.55;1.65;;;17.70;99.90;;;;;;5034536;28;20095;-76
2022/07/28 10:18:53;;;;;;;4.50;1.35;;;17.70;99.90;;;;;;5045453;28;20033;-75
2022/07/28 10:21:21;;;;;;;5.75;1.25;;;17.70;99.90;;;;;;5037969;28;20036;-76
2022/07/28 10:23:53;;;;;;;4.10;1.20;;;17.50;99.90;;;;;;5050795;28;20052;-76
2022/07/28 10:26:40;;;;;;;2.67;1.10;;;17.50;99.90;;;;;;5050508;28;20052;-76
2022/07/28 10:29:07;;;;;;;3.90;1.40;;;17.40;99.90;;;;;;5042076;28;20085;-76
2022/07/28 10:31:59;;;;;;;3.95;1.17;;;17.40;99.90;;;;;;5055125;28;20041;-76
2022/07/28 10:34:36;;;;;;;4.10;1.20;;;17.30;99.90;;;;;;5055065;28;20053;-76
2022/07/28 10:37:03;;;;;;;5.93;1.42;;;17.20;99.90;;;;;;5062276;28;20044;-76
2022/07/28 10:39:38;;;;;;;4.07;1.48;;;17.20;99.90;;;;;;5058440;28;20044;-76
2022/07/28 10:42:07;;;;;;;4.78;1.60;;;17.10;99.90;;;;;;5067773;28;20115;-76
2022/07/28 10:44:33;;;;;;;6.95;1.50;;;17.10;99.90;;;;;;5028192;28;20104;-76
2022/07/28 10:46:59;;;;;;;5.47;1.95;;;17.10;99.90;;;;;;5043106;28;20481;-76
2022/07/28 10:49:26;;;;;;;5.13;1.30;;;17.20;99.90;;;;;;5038260;28;20044;-76
2022/07/28 10:51:52;;;;;;;2.97;1.20;;;17.20;99.90;;;;;;5050062;28;20463;-76
2022/07/28 10:54:26;;;;;;;4.50;1.33;;;17.20;99.90;;;;;;5057949;28;20048;-76
2022/07/28 10:56:57;;;;;;;3.28;1.13;;;17.30;99.90;;;;;;5071944;28;20118;-76
2022/07/28 10:59:52;;;;;;;2.23;0.90;;;17.40;99.90;;;;;;5068658;28;20044;-76
2022/07/28 11:02:43;;;;;;;2.25;0.90;;;17.40;99.90;;;;;;5035359;28;20533;-76
2022/07/28 11:05:38;;;;;;;3.85;1.13;;;17.50;99.90;;;;;;5056099;28;20409;-76
2022/07/28 11:08:05;;;;;;;2.97;1.00;;;17.70;99.90;;;;;;5053053;28;20047;-76
2022/07/28 11:10:46;;;;;;;2.72;1.10;;;17.80;99.90;;;;;;5055099;28;20033;-76
2022/07/28 11:13:41;;;;;;;3.40;1.13;;;17.90;99.90;;;;;;5072874;28;20459;-76
2022/07/28 11:16:13;;;;;;;2.33;0.90;;;17.90;99.90;;;;;;5048873;28;20508;-76
2022/07/28 11:19:00;;;;;;;3.65;1.30;;;17.80;99.90;;;;;;5029827;28;20042;-76
2022/07/28 11:21:26;;;;;;;3.70;0.98;;;17.80;99.90;;;;;;5033198;28;20044;-76
2022/07/28 11:23:56;;;;;;;3.00;1.15;;;17.80;99.90;;;;;;5057795;28;20043;-76
2022/07/28 11:26:22;;;;;;;4.25;1.15;;;17.80;99.90;;;;;;5049162;28;20501;-76
2022/07/28 11:28:57;;;;;;;5.47;1.02;;;17.90;99.90;;;;;;5045854;28;20044;-76
2022/07/28 11:31:45;;;;;;;2.53;1.00;;;17.90;99.90;;;;;;5074806;28;20396;-76
2022/07/28 11:34:11;;;;;;;2.55;1.00;;;17.90;99.90;;;;;;5017433;28;20045;-76
2022/07/28 11:37:08;;;;;;;2.92;0.98;;;18.00;99.90;;;;;;5033297;28;20037;-75
2022/07/28 11:39:39;;;;;;;4.13;1.15;;;18.10;99.90;;;;;;5068520;28;20036;-76
2022/07/28 11:42:28;;;;;;;4.00;1.50;;;18.30;99.90;;;;;;5057850;28;20045;-75
2022/07/28 11:44:55;;;;;;;4.25;1.08;;;18.70;99.90;;;;;;5073541;28;20037;-76
2022/07/28 11:47:23;;;;;;;1.52;0.80;;;18.90;99.90;;;;;;5059149;28;20045;-76
2022/07/28 11:50:14;;;;;;;3.47;0.98;;;18.90;99.90;;;;;;5067999;28;20048;-75
2022/07/28 11:53:06;;;;;;;2.95;1.17;;;18.90;99.90;;;;;;5076479;28;20124;-75
2022/07/28 11:55:32;;;;;;;4.47;1.30;;;18.90;99.90;;;;;;5072302;28;20394;-75
2022/07/28 11:58:02;;;;;;;3.05;1.00;;;19.00;99.90;;;;;;5066785;28;20032;-75
2022/07/28 12:00:28;;;;;;;4.90;1.20;;;19.00;99.90;;;;;;5070540;28;20041;-75
2022/07/28 12:02:54;;;;;;;4.80;1.20;;;19.00;99.90;;;;;;5052721;28;20037;-75
2022/07/28 12:05:21;;;;;;;3.28;1.40;;;19.00;99.90;;;;;;5053419;28;20048;-75
2022/07/28 12:07:49;;;;;;;2.65;1.48;;;19.00;99.90;;;;;;5062110;28;20048;-75
2022/07/28 12:10:24;;;;;;;5.55;1.70;;;19.00;99.90;;;;;;5052391;28;20068;-75
2022/07/28 12:12:51;;;;;;;6.00;3.45;;;19.10;99.90;;;;;;5055625;28;20087;-76
2022/07/28 12:15:18;;;;;;;6.13;2.50;;;19.00;99.60;;;;;;5056499;28;20063;-75
2022/07/28 12:17:44;;;;;;;3.67;1.25;;;19.00;99.90;;;;;;5053049;28;20038;-75
2022/07/28 12:20:12;;;;;;;2.55;1.00;;;19.00;99.90;;;;;;5036784;28;20083;-75
2022/07/28 12:22:38;;;;;;;2.80;1.08;;;19.00;99.90;;;;;;5050103;28;20513;-75
2022/07/28 12:25:04;;;;;;;7.20;1.38;;;19.00;99.90;;;;;;5056168;28;20099;-75
2022/07/28 12:27:29;;;;;;;2.20;1.10;;;19.00;99.90;;;;;;5041408;28;20140;-75
2022/07/28 12:30:00;;;;;;;3.83;1.30;;;19.00;99.90;;;;;;5027353;28;20045;-75
2022/07/28 12:32:34;;;;;;;2.80;1.15;;;19.00;99.90;;;;;;5036602;28;20033;-75
2022/07/28 12:35:00;;;;;;;4.07;1.52;;;18.90;99.90;;;;;;5018909;28;20032;-75
2022/07/28 12:37:27;;;;;;;6.68;1.45;;;19.00;99.90;;;;;;5036339;28;20091;-73
2022/07/28 12:39:52;;;;;;;2.75;1.30;;;19.00;99.90;;;;;;5034171;28;20040;-73
2022/07/28 12:42:18;;;;;;;3.85;1.80;;;19.00;99.90;;;;;;5052828;28;20033;-73
2022/07/28 12:44:47;;;;;;;4.07;0.93;;;19.00;99.90;;;;;;5059051;28;20489;-73
2022/07/28 12:47:14;;;;;;;3.63;1.15;;;19.10;99.90;;;;;;5052600;28;20049;-73
2022/07/28 12:49:43;;;;;;;2.58;1.00;;;19.20;99.90;;;;;;5063197;28;20041;-73
2022/07/28 12:52:19;;;;;;;4.40;0.98;;;19.30;99.90;;;;;;5065806;28;20041;-73
2022/07/28 12:54:45;;;;;;;2.97;1.00;;;19.20;99.90;;;;;;5054081;28;20056;-73
2022/07/28 12:57:11;;;;;;;3.97;0.95;;;19.20;99.90;;;;;;5055662;28;20036;-73
2022/07/28 12:59:38;;;;;;;3.08;1.00;;;19.10;99.90;;;;;;5043879;28;20029;-73